sensor_id;sensor_type;location;lat;lon;timestamp;temperature;humidity
31311;DHT22;17937;51.508;7.534;2022-10-17T00:01:04;15.00;99.90
31311;DHT22;17937;51.508;7.534;2022-10-17T00:03:30;15.00;99.90
31311;DHT22;17937;51.508;7.534;2022-10-17T00:05:55;15.00;99.90
31311;DHT22;17937;51.508;7.534;2022-10-17T00:08:21;15.00;99.90
31311;DHT22;17937;51.508;7.534;2022-10-17T00:10:58;15.10;99.90
31311;DHT22;17937;51.508;7.534;2022-10-17T00:13:24;15.20;99.90
31311;DHT22;17937;51.508;7.534;2022-10-17T00:15:50;15.30;99.90
31311;DHT22;17937;51.508;7.534;2022-10-17T00:18:16;15.30;99.90
31311;DHT22;17937;51.508;7.534;2022-10-17T00:20:41;15.40;99.90
31311;DHT22;17937;51.508;7.534;2022-10-17T00:23:07;15.50;99.90
31311;DHT22;17937;51.508;7.534;2022-10-17T00:25:32;15.60;99.90
31311;DHT22;17937;51.508;7.534;2022-10-17T00:27:58;15.60;99.90
31311;DHT22;17937;51.508;7.534;2022-10-17T00:30:23;15.60;99.90
31311;DHT22;17937;51.508;7.534;2022-10-17T00:32:49;15.70;99.90
31311;DHT22;17937;51.508;7.534;2022-10-17T00:35:15;15.70;99.90
31311;DHT22;17937;51.508;7.534;2022-10-17T00:37:40;15.70;99.90
31311;DHT22;17937;51.508;7.534;2022-10-17T00:40:06;15.70;99.90
31311;DHT22;17937;51.508;7.534;2022-10-17T00:42:32;15.70;99.90
31311;DHT22;17937;51.508;7.534;2022-10-17T00:45:14;15.70;99.90
31311;DHT22;17937;51.508;7.534;2022-10-17T00:47:42;15.80;99.90
31311;DHT22;17937;51.508;7.534;2022-10-17T00:50:10;15.80;99.90
31311;DHT22;17937;51.508;7.534;2022-10-17T00:52:37;15.80;99.90
31311;DHT22;17937;51.508;7.534;2022-10-17T00:55:22;15.80;99.90
31311;DHT22;17937;51.508;7.534;2022-10-17T00:57:48;15.80;99.90
31311;DHT22;17937;51.508;7.534;2022-10-17T01:00:15;15.80;99.90
31311;DHT22;17937;51.508;7.534;2022-10-17T01:02:41;15.80;99.90
31311;DHT22;17937;51.508;7.534;2022-10-17T01:05:07;15.80;99.90
31311;DHT22;17937;51.508;7.534;2022-10-17T01:07:33;15.80;99.90
31311;DHT22;17937;51.508;7.534;2022-10-17T01:09:59;15.90;99.90
31311;DHT22;17937;51.508;7.534;2022-10-17T01:15:24;15.90;99.90
31311;DHT22;17937;51.508;7.534;2022-10-17T01:26:15;16.00;99.90
31311;DHT22;17937;51.508;7.534;2022-10-17T01:31:42;16.00;99.90
31311;DHT22;17937;51.508;7.534;2022-10-17T01:34:21;16.00;99.90
31311;DHT22;17937;51.508;7.534;2022-10-17T01:36:53;16.00;99.90
31311;DHT22;17937;51.508;7.534;2022-10-17T01:39:40;16.10;99.90
31311;DHT22;17937;51.508;7.534;2022-10-17T01:44:49;16.10;99.90
31311;DHT22;17937;51.508;7.534;2022-10-17T01:47:20;16.10;99.90
31311;DHT22;17937;51.508;7.534;2022-10-17T01:49:49;16.10;99.90
31311;DHT22;17937;51.508;7.534;2022-10-17T01:52:25;16.10;99.90
31311;DHT22;17937;51.508;7.534;2022-10-17T01:54:55;16.20;99.90
31311;DHT22;17937;51.508;7.534;2022-10-17T01:57:55;16.10;99.90
31311;DHT22;17937;51.508;7.534;2022-10-17T02:00:22;16.20;99.90
31311;DHT22;17937;51.508;7.534;2022-10-17T02:02:51;16.20;99.90
31311;DHT22;17937;51.508;7.534;2022-10-17T02:05:20;16.20;99.90
31311;DHT22;17937;51.508;7.534;2022-10-17T02:07:46;16.20;99.90
31311;DHT22;17937;51.508;7.534;2022-10-17T02:10:25;16.20;99.90
31311;DHT22;17937;51.508;7.534;2022-10-17T02:13:05;16.20;99.90
31311;DHT22;17937;51.508;7.534;2022-10-17T02:15:44;16.30;99.90
31311;DHT22;17937;51.508;7.534;2022-10-17T02:18:21;16.30;99.90
31311;DHT22;17937;51.508;7.534;2022-10-17T02:21:10;16.30;99.90
31311;DHT22;17937;51.508;7.534;2022-10-17T02:23:51;16.30;99.90
31311;DHT22;17937;51.508;7.534;2022-10-17T02:26:24;16.30;99.90
31311;DHT22;17937;51.508;7.534;2022-10-17T02:29:09;16.30;99.90
31311;DHT22;17937;51.508;7.534;2022-10-17T02:36:52;16.20;99.90
31311;DHT22;17937;51.508;7.534;2022-10-17T02:39:21;16.30;99.90
31311;DHT22;17937;51.508;7.534;2022-10-17T02:41:49;16.30;99.90
31311;DHT22;17937;51.508;7.534;2022-10-17T02:44:15;16.30;99.90
31311;DHT22;17937;51.508;7.534;2022-10-17T02:46:44;16.30;99.90
31311;DHT22;17937;51.508;7.534;2022-10-17T02:49:17;16.30;99.90
31311;DHT22;17937;51.508;7.534;2022-10-17T02:52:06;16.30;99.90
31311;DHT22;17937;51.508;7.534;2022-10-17T02:54:44;16.30;99.90
31311;DHT22;17937;51.508;7.534;2022-10-17T02:57:20;16.20;99.90
31311;DHT22;17937;51.508;7.534;2022-10-17T02:59:48;16.20;99.90
31311;DHT22;17937;51.508;7.534;2022-10-17T03:02:14;16.20;99.90
31311;DHT22;17937;51.508;7.534;2022-10-17T03:04:45;16.30;99.90
31311;DHT22;17937;51.508;7.534;2022-10-17T03:07:10;16.30;99.90
31311;DHT22;17937;51.508;7.534;2022-10-17T03:09:36;16.30;99.90
31311;DHT22;17937;51.508;7.534;2022-10-17T03:12:02;16.30;99.90
31311;DHT22;17937;51.508;7.534;2022-10-17T03:14:27;16.30;99.90
31311;DHT22;17937;51.508;7.534;2022-10-17T03:16:53;16.30;99.90
31311;DHT22;17937;51.508;7.534;2022-10-17T03:19:18;16.30;99.90
31311;DHT22;17937;51.508;7.534;2022-10-17T03:21:44;16.30;99.90
31311;DHT22;17937;51.508;7.534;2022-10-17T03:24:09;16.30;99.90
31311;DHT22;17937;51.508;7.534;2022-10-17T03:26:35;16.30;99.90
31311;DHT22;17937;51.508;7.534;2022-10-17T03:29:01;16.40;99.90
31311;DHT22;17937;51.508;7.534;2022-10-17T03:31:26;16.40;99.90
31311;DHT22;17937;51.508;7.534;2022-10-17T03:33:52;16.50;99.90
31311;DHT22;17937;51.508;7.534;2022-10-17T03:36:18;16.50;99.90
31311;DHT22;17937;51.508;7.534;2022-10-17T03:38:44;16.50;99.90
31311;DHT22;17937;51.508;7.534;2022-10-17T03:41:11;16.50;99.90
31311;DHT22;17937;51.508;7.534;2022-10-17T03:43:36;16.50;99.90
31311;DHT22;17937;51.508;7.534;2022-10-17T03:46:02;16.50;99.90
31311;DHT22;17937;51.508;7.534;2022-10-17T03:48:29;16.50;99.90
31311;DHT22;17937;51.508;7.534;2022-10-17T03:50:59;16.50;99.90
31311;DHT22;17937;51.508;7.534;2022-10-17T03:53:25;16.50;99.90
31311;DHT22;17937;51.508;7.534;2022-10-17T03:55:51;16.50;99.90
31311;DHT22;17937;51.508;7.534;2022-10-17T03:58:17;16.50;99.90
31311;DHT22;17937;51.508;7.534;2022-10-17T04:00:42;16.50;99.90
31311;DHT22;17937;51.508;7.534;2022-10-17T04:03:08;16.50;99.90
31311;DHT22;17937;51.508;7.534;2022-10-17T04:05:33;16.50;99.90
31311;DHT22;17937;51.508;7.534;2022-10-17T04:07:59;16.50;99.90
31311;DHT22;17937;51.508;7.534;2022-10-17T04:10:24;16.50;99.90
31311;DHT22;17937;51.508;7.534;2022-10-17T04:12:50;16.50;99.90
31311;DHT22;17937;51.508;7.534;2022-10-17T04:15:16;16.50;99.90
31311;DHT22;17937;51.508;7.534;2022-10-17T04:17:41;16.50;99.90
31311;DHT22;17937;51.508;7.534;2022-10-17T04:20:07;16.50;99.90
31311;DHT22;17937;51.508;7.534;2022-10-17T04:22:33;16.50;99.90
31311;DHT22;17937;51.508;7.534;2022-10-17T04:24:58;16.60;99.90
31311;DHT22;17937;51.508;7.534;2022-10-17T04:27:24;16.60;99.90
31311;DHT22;17937;51.508;7.534;2022-10-17T04:29:50;16.60;99.90
31311;DHT22;17937;51.508;7.534;2022-10-17T04:32:15;16.70;99.90
31311;DHT22;17937;51.508;7.534;2022-10-17T04:34:41;16.70;99.90
31311;DHT22;17937;51.508;7.534;2022-10-17T04:37:07;16.70;99.90
31311;DHT22;17937;51.508;7.534;2022-10-17T04:39:33;16.60;99.90
31311;DHT22;17937;51.508;7.534;2022-10-17T04:41:58;16.70;99.90
31311;DHT22;17937;51.508;7.534;2022-10-17T04:44:24;16.60;99.90
31311;DHT22;17937;51.508;7.534;2022-10-17T04:46:49;16.60;99.90
31311;DHT22;17937;51.508;7.534;2022-10-17T04:49:15;16.60;99.90
31311;DHT22;17937;51.508;7.534;2022-10-17T04:51:41;16.60;99.90
31311;DHT22;17937;51.508;7.534;2022-10-17T04:54:06;16.50;99.90
31311;DHT22;17937;51.508;7.534;2022-10-17T04:56:32;16.60;99.90
31311;DHT22;17937;51.508;7.534;2022-10-17T04:58:58;16.50;99.90
31311;DHT22;17937;51.508;7.534;2022-10-17T05:01:24;16.50;99.90
31311;DHT22;17937;51.508;7.534;2022-10-17T05:03:51;16.60;99.90
31311;DHT22;17937;51.508;7.534;2022-10-17T05:06:22;16.50;99.90
31311;DHT22;17937;51.508;7.534;2022-10-17T05:08:48;16.60;99.90
31311;DHT22;17937;51.508;7.534;2022-10-17T05:13:49;16.60;99.90
31311;DHT22;17937;51.508;7.534;2022-10-17T05:16:15;16.50;99.90
31311;DHT22;17937;51.508;7.534;2022-10-17T05:18:40;16.60;99.90
31311;DHT22;17937;51.508;7.534;2022-10-17T05:21:06;16.60;99.90
31311;DHT22;17937;51.508;7.534;2022-10-17T05:23:32;16.60;99.90
31311;DHT22;17937;51.508;7.534;2022-10-17T05:25:57;16.60;99.90
31311;DHT22;17937;51.508;7.534;2022-10-17T05:28:23;16.60;99.90
31311;DHT22;17937;51.508;7.534;2022-10-17T05:30:49;16.70;99.90
31311;DHT22;17937;51.508;7.534;2022-10-17T05:33:15;16.70;99.90
31311;DHT22;17937;51.508;7.534;2022-10-17T05:35:40;16.60;99.90
31311;DHT22;17937;51.508;7.534;2022-10-17T05:38:06;16.60;99.90
31311;DHT22;17937;51.508;7.534;2022-10-17T05:40:32;16.60;99.90
31311;DHT22;17937;51.508;7.534;2022-10-17T05:42:57;16.60;99.90
31311;DHT22;17937;51.508;7.534;2022-10-17T05:45:23;16.60;99.90
31311;DHT22;17937;51.508;7.534;2022-10-17T05:47:48;16.60;99.90
31311;DHT22;17937;51.508;7.534;2022-10-17T05:50:14;16.60;99.90
31311;DHT22;17937;51.508;7.534;2022-10-17T05:52:40;16.60;99.90
31311;DHT22;17937;51.508;7.534;2022-10-17T05:55:06;16.60;99.90
31311;DHT22;17937;51.508;7.534;2022-10-17T05:57:31;16.60;99.90
31311;DHT22;17937;51.508;7.534;2022-10-17T05:59:57;16.70;99.90
31311;DHT22;17937;51.508;7.534;2022-10-17T06:02:23;16.60;99.90
31311;DHT22;17937;51.508;7.534;2022-10-17T06:04:48;16.70;99.90
31311;DHT22;17937;51.508;7.534;2022-10-17T06:07:15;16.70;99.90
31311;DHT22;17937;51.508;7.534;2022-10-17T06:09:40;16.70;99.90
31311;DHT22;17937;51.508;7.534;2022-10-17T06:12:06;16.70;99.90
31311;DHT22;17937;51.508;7.534;2022-10-17T06:14:32;16.80;99.90
31311;DHT22;17937;51.508;7.534;2022-10-17T06:16:58;16.80;99.90
31311;DHT22;17937;51.508;7.534;2022-10-17T06:19:24;16.80;99.90
31311;DHT22;17937;51.508;7.534;2022-10-17T06:21:49;16.80;99.90
31311;DHT22;17937;51.508;7.534;2022-10-17T06:24:15;16.80;99.90
31311;DHT22;17937;51.508;7.534;2022-10-17T06:26:40;16.90;99.90
31311;DHT22;17937;51.508;7.534;2022-10-17T06:29:06;17.00;99.90
31311;DHT22;17937;51.508;7.534;2022-10-17T06:31:31;17.00;99.90
31311;DHT22;17937;51.508;7.534;2022-10-17T06:33:57;17.00;99.90
31311;DHT22;17937;51.508;7.534;2022-10-17T06:36:23;17.20;99.90
31311;DHT22;17937;51.508;7.534;2022-10-17T06:38:48;17.20;99.90
31311;DHT22;17937;51.508;7.534;2022-10-17T06:41:15;17.20;99.90
31311;DHT22;17937;51.508;7.534;2022-10-17T06:43:44;17.20;99.90
31311;DHT22;17937;51.508;7.534;2022-10-17T06:46:11;17.30;99.90
31311;DHT22;17937;51.508;7.534;2022-10-17T06:48:36;17.30;99.90
31311;DHT22;17937;51.508;7.534;2022-10-17T06:51:03;17.40;99.90
31311;DHT22;17937;51.508;7.534;2022-10-17T06:53:31;17.40;99.90
31311;DHT22;17937;51.508;7.534;2022-10-17T06:55:56;17.60;99.90
31311;DHT22;17937;51.508;7.534;2022-10-17T06:58:28;17.70;99.90
31311;DHT22;17937;51.508;7.534;2022-10-17T07:01:03;17.80;99.90
31311;DHT22;17937;51.508;7.534;2022-10-17T07:03:30;17.80;99.90
31311;DHT22;17937;51.508;7.534;2022-10-17T07:05:56;17.90;99.90
31311;DHT22;17937;51.508;7.534;2022-10-17T07:08:22;18.00;99.90
31311;DHT22;17937;51.508;7.534;2022-10-17T07:10:48;18.20;99.90
31311;DHT22;17937;51.508;7.534;2022-10-17T07:13:13;18.40;99.90
31311;DHT22;17937;51.508;7.534;2022-10-17T07:15:39;18.70;99.90
31311;DHT22;17937;51.508;7.534;2022-10-17T07:18:05;19.00;99.90
31311;DHT22;17937;51.508;7.534;2022-10-17T07:20:31;19.30;99.90
31311;DHT22;17937;51.508;7.534;2022-10-17T07:22:56;19.90;99.90
31311;DHT22;17937;51.508;7.534;2022-10-17T07:25:22;20.30;99.90
31311;DHT22;17937;51.508;7.534;2022-10-17T07:27:49;20.40;99.90
31311;DHT22;17937;51.508;7.534;2022-10-17T07:30:15;20.50;99.90
31311;DHT22;17937;51.508;7.534;2022-10-17T07:32:41;20.70;99.90
31311;DHT22;17937;51.508;7.534;2022-10-17T07:35:08;20.50;99.90
31311;DHT22;17937;51.508;7.534;2022-10-17T07:37:34;20.40;99.90
31311;DHT22;17937;51.508;7.534;2022-10-17T07:39:59;20.30;99.90
31311;DHT22;17937;51.508;7.534;2022-10-17T07:42:25;20.30;99.90
31311;DHT22;17937;51.508;7.534;2022-10-17T07:44:52;20.40;99.90
31311;DHT22;17937;51.508;7.534;2022-10-17T07:47:17;20.50;99.90
31311;DHT22;17937;51.508;7.534;2022-10-17T07:49:43;20.80;99.90
31311;DHT22;17937;51.508;7.534;2022-10-17T07:52:10;21.10;99.90
31311;DHT22;17937;51.508;7.534;2022-10-17T07:54:36;21.00;99.90
31311;DHT22;17937;51.508;7.534;2022-10-17T07:57:02;20.90;99.90
31311;DHT22;17937;51.508;7.534;2022-10-17T07:59:28;20.80;99.90
31311;DHT22;17937;51.508;7.534;2022-10-17T08:01:56;20.80;99.90
31311;DHT22;17937;51.508;7.534;2022-10-17T08:04:22;20.50;99.90
31311;DHT22;17937;51.508;7.534;2022-10-17T08:06:48;20.40;99.90
31311;DHT22;17937;51.508;7.534;2022-10-17T08:09:14;20.20;99.90
31311;DHT22;17937;51.508;7.534;2022-10-17T08:11:39;20.10;99.90
31311;DHT22;17937;51.508;7.534;2022-10-17T08:14:08;20.00;99.90
31311;DHT22;17937;51.508;7.534;2022-10-17T08:16:34;19.90;99.90
31311;DHT22;17937;51.508;7.534;2022-10-17T08:19:00;19.80;99.90
31311;DHT22;17937;51.508;7.534;2022-10-17T08:21:26;19.80;99.90
31311;DHT22;17937;51.508;7.534;2022-10-17T08:23:51;19.80;99.90
31311;DHT22;17937;51.508;7.534;2022-10-17T08:26:18;20.00;99.90
31311;DHT22;17937;51.508;7.534;2022-10-17T08:28:45;20.20;99.90
31311;DHT22;17937;51.508;7.534;2022-10-17T08:31:13;20.80;99.90
31311;DHT22;17937;51.508;7.534;2022-10-17T08:33:40;21.60;99.90
31311;DHT22;17937;51.508;7.534;2022-10-17T08:36:06;22.10;99.90
31311;DHT22;17937;51.508;7.534;2022-10-17T08:38:33;22.80;99.90
31311;DHT22;17937;51.508;7.534;2022-10-17T08:41:02;23.30;99.90
31311;DHT22;17937;51.508;7.534;2022-10-17T08:46:07;23.70;99.90
31311;DHT22;17937;51.508;7.534;2022-10-17T08:48:39;23.40;99.90
31311;DHT22;17937;51.508;7.534;2022-10-17T08:58:47;23.20;99.90
31311;DHT22;17937;51.508;7.534;2022-10-17T09:01:32;24.10;99.90
31311;DHT22;17937;51.508;7.534;2022-10-17T09:04:53;24.90;99.90
31311;DHT22;17937;51.508;7.534;2022-10-17T09:12:34;25.80;99.90
31311;DHT22;17937;51.508;7.534;2022-10-17T09:15:11;26.10;99.90
31311;DHT22;17937;51.508;7.534;2022-10-17T09:18:26;26.30;99.90
31311;DHT22;17937;51.508;7.534;2022-10-17T09:23:56;26.40;99.90
31311;DHT22;17937;51.508;7.534;2022-10-17T09:26:24;26.10;99.90
31311;DHT22;17937;51.508;7.534;2022-10-17T09:28:52;25.60;99.90
31311;DHT22;17937;51.508;7.534;2022-10-17T09:31:29;25.30;99.90
31311;DHT22;17937;51.508;7.534;2022-10-17T09:34:00;25.30;99.90
31311;DHT22;17937;51.508;7.534;2022-10-17T09:36:32;25.10;99.90
31311;DHT22;17937;51.508;7.534;2022-10-17T09:38:59;24.90;99.90
31311;DHT22;17937;51.508;7.534;2022-10-17T09:41:50;25.00;99.90
31311;DHT22;17937;51.508;7.534;2022-10-17T09:44:24;25.50;99.90
31311;DHT22;17937;51.508;7.534;2022-10-17T09:49:33;26.50;99.90
31311;DHT22;17937;51.508;7.534;2022-10-17T09:52:04;26.70;99.90
31311;DHT22;17937;51.508;7.534;2022-10-17T09:54:45;27.10;99.90
31311;DHT22;17937;51.508;7.534;2022-10-17T09:57:13;27.20;99.90
31311;DHT22;17937;51.508;7.534;2022-10-17T09:59:45;27.60;99.90
31311;DHT22;17937;51.508;7.534;2022-10-17T10:02:19;27.80;99.90
31311;DHT22;17937;51.508;7.534;2022-10-17T10:07:24;27.60;99.90
31311;DHT22;17937;51.508;7.534;2022-10-17T10:09:51;27.60;99.90
31311;DHT22;17937;51.508;7.534;2022-10-17T10:12:19;27.10;99.90
31311;DHT22;17937;51.508;7.534;2022-10-17T10:14:45;26.40;99.90
31311;DHT22;17937;51.508;7.534;2022-10-17T10:17:32;25.50;99.90
31311;DHT22;17937;51.508;7.534;2022-10-17T10:19:59;24.70;99.90
31311;DHT22;17937;51.508;7.534;2022-10-17T10:22:25;24.10;99.90
31311;DHT22;17937;51.508;7.534;2022-10-17T10:27:35;23.40;99.90
31311;DHT22;17937;51.508;7.534;2022-10-17T10:30:01;23.10;99.90
31311;DHT22;17937;51.508;7.534;2022-10-17T10:32:32;22.80;99.90
31311;DHT22;17937;51.508;7.534;2022-10-17T10:35:00;22.60;99.90
31311;DHT22;17937;51.508;7.534;2022-10-17T10:37:28;22.40;99.90
31311;DHT22;17937;51.508;7.534;2022-10-17T10:40:01;22.30;99.90
31311;DHT22;17937;51.508;7.534;2022-10-17T10:42:32;22.20;99.90
31311;DHT22;17937;51.508;7.534;2022-10-17T10:47:54;22.00;99.90
31311;DHT22;17937;51.508;7.534;2022-10-17T10:53:13;22.00;99.90
31311;DHT22;17937;51.508;7.534;2022-10-17T10:55:47;22.00;99.90
31311;DHT22;17937;51.508;7.534;2022-10-17T10:58:40;22.00;99.90
31311;DHT22;17937;51.508;7.534;2022-10-17T11:01:43;21.90;99.90
31311;DHT22;17937;51.508;7.534;2022-10-17T11:07:38;21.80;99.90
31311;DHT22;17937;51.508;7.534;2022-10-17T11:10:31;21.80;99.90
31311;DHT22;17937;51.508;7.534;2022-10-17T11:13:17;21.80;99.90
31311;DHT22;17937;51.508;7.534;2022-10-17T11:18:47;21.80;99.90
31311;DHT22;17937;51.508;7.534;2022-10-17T11:21:19;21.90;99.90
31311;DHT22;17937;51.508;7.534;2022-10-17T11:23:55;21.90;99.90
31311;DHT22;17937;51.508;7.534;2022-10-17T11:26:26;21.80;99.90
31311;DHT22;17937;51.508;7.534;2022-10-17T11:28:54;21.80;99.90
31311;DHT22;17937;51.508;7.534;2022-10-17T11:31:23;21.80;99.90
31311;DHT22;17937;51.508;7.534;2022-10-17T11:33:54;21.80;99.90
31311;DHT22;17937;51.508;7.534;2022-10-17T11:36:26;21.80;99.90
31311;DHT22;17937;51.508;7.534;2022-10-17T11:39:05;21.80;99.90
31311;DHT22;17937;51.508;7.534;2022-10-17T11:41:58;21.80;99.90
31311;DHT22;17937;51.508;7.534;2022-10-17T11:44:30;21.80;99.90
31311;DHT22;17937;51.508;7.534;2022-10-17T11:52:38;21.70;99.90
31311;DHT22;17937;51.508;7.534;2022-10-17T11:55:20;21.80;99.90
31311;DHT22;17937;51.508;7.534;2022-10-17T11:58:08;21.80;99.90
31311;DHT22;17937;51.508;7.534;2022-10-17T12:06:36;21.80;99.90
31311;DHT22;17937;51.508;7.534;2022-10-17T12:09:34;21.70;99.90
31311;DHT22;17937;51.508;7.534;2022-10-17T12:12:03;21.80;99.90
31311;DHT22;17937;51.508;7.534;2022-10-17T12:14:36;21.70;99.90
31311;DHT22;17937;51.508;7.534;2022-10-17T12:17:03;21.70;99.90
31311;DHT22;17937;51.508;7.534;2022-10-17T12:19:31;21.70;99.90
31311;DHT22;17937;51.508;7.534;2022-10-17T12:22:18;21.70;99.90
31311;DHT22;17937;51.508;7.534;2022-10-17T12:25:03;21.70;99.90
31311;DHT22;17937;51.508;7.534;2022-10-17T12:27:35;21.70;99.90
31311;DHT22;17937;51.508;7.534;2022-10-17T12:30:23;21.70;99.90
31311;DHT22;17937;51.508;7.534;2022-10-17T12:33:03;21.70;99.90
31311;DHT22;17937;51.508;7.534;2022-10-17T12:35:31;21.70;99.90
31311;DHT22;17937;51.508;7.534;2022-10-17T12:48:10;21.70;99.90
31311;DHT22;17937;51.508;7.534;2022-10-17T12:51:37;21.70;99.90
31311;DHT22;17937;51.508;7.534;2022-10-17T12:53:59;21.80;99.90
31311;DHT22;17937;51.508;7.534;2022-10-17T12:56:40;21.80;99.90
31311;DHT22;17937;51.508;7.534;2022-10-17T12:59:25;21.70;99.90
31311;DHT22;17937;51.508;7.534;2022-10-17T13:01:56;21.70;99.90
31311;DHT22;17937;51.508;7.534;2022-10-17T13:04:23;21.60;99.90
31311;DHT22;17937;51.508;7.534;2022-10-17T13:06:56;21.60;99.90
31311;DHT22;17937;51.508;7.534;2022-10-17T13:09:31;21.50;99.90
31311;DHT22;17937;51.508;7.534;2022-10-17T13:11:59;21.50;99.90
31311;DHT22;17937;51.508;7.534;2022-10-17T13:14:26;21.50;99.90
31311;DHT22;17937;51.508;7.534;2022-10-17T13:16:55;21.40;99.90
31311;DHT22;17937;51.508;7.534;2022-10-17T13:19:40;21.30;99.90
31311;DHT22;17937;51.508;7.534;2022-10-17T13:22:22;21.30;99.90
31311;DHT22;17937;51.508;7.534;2022-10-17T13:24:50;21.20;99.90
31311;DHT22;17937;51.508;7.534;2022-10-17T13:27:26;21.20;99.90
31311;DHT22;17937;51.508;7.534;2022-10-17T13:29:52;21.30;99.90
31311;DHT22;17937;51.508;7.534;2022-10-17T13:32:21;21.30;99.90
31311;DHT22;17937;51.508;7.534;2022-10-17T13:35:11;21.20;99.90
31311;DHT22;17937;51.508;7.534;2022-10-17T13:37:40;21.10;99.90
31311;DHT22;17937;51.508;7.534;2022-10-17T13:40:13;21.00;99.90
31311;DHT22;17937;51.508;7.534;2022-10-17T13:42:40;21.00;99.90
31311;DHT22;17937;51.508;7.534;2022-10-17T13:45:27;20.90;99.90
31311;DHT22;17937;51.508;7.534;2022-10-17T13:47:53;20.90;99.90
31311;DHT22;17937;51.508;7.534;2022-10-17T13:50:26;21.00;99.90
31311;DHT22;17937;51.508;7.534;2022-10-17T13:55:37;21.00;99.90
31311;DHT22;17937;51.508;7.534;2022-10-17T13:58:46;21.10;99.90
31311;DHT22;17937;51.508;7.534;2022-10-17T14:01:12;21.00;99.90
31311;DHT22;17937;51.508;7.534;2022-10-17T14:03:42;21.00;99.90
31311;DHT22;17937;51.508;7.534;2022-10-17T14:11:21;20.90;99.90
31311;DHT22;17937;51.508;7.534;2022-10-17T14:13:49;20.80;99.90
31311;DHT22;17937;51.508;7.534;2022-10-17T14:16:16;20.80;99.90
31311;DHT22;17937;51.508;7.534;2022-10-17T14:18:46;20.70;99.90
31311;DHT22;17937;51.508;7.534;2022-10-17T14:21:21;20.70;99.90
31311;DHT22;17937;51.508;7.534;2022-10-17T14:23:46;20.70;99.90
31311;DHT22;17937;51.508;7.534;2022-10-17T14:28:44;20.70;99.90
31311;DHT22;17937;51.508;7.534;2022-10-17T14:31:34;20.70;99.90
31311;DHT22;17937;51.508;7.534;2022-10-17T14:34:02;20.70;99.90
31311;DHT22;17937;51.508;7.534;2022-10-17T14:36:34;20.70;99.90
31311;DHT22;17937;51.508;7.534;2022-10-17T14:39:02;20.60;99.90
31311;DHT22;17937;51.508;7.534;2022-10-17T14:41:31;20.50;99.90
31311;DHT22;17937;51.508;7.534;2022-10-17T14:44:00;20.50;99.90
31311;DHT22;17937;51.508;7.534;2022-10-17T14:46:26;20.40;99.90
31311;DHT22;17937;51.508;7.534;2022-10-17T14:48:55;20.40;99.90
31311;DHT22;17937;51.508;7.534;2022-10-17T14:51:21;20.50;99.90
31311;DHT22;17937;51.508;7.534;2022-10-17T14:54:18;20.40;99.90
31311;DHT22;17937;51.508;7.534;2022-10-17T14:56:52;20.40;99.90
31311;DHT22;17937;51.508;7.534;2022-10-17T14:59:19;20.30;99.90
31311;DHT22;17937;51.508;7.534;2022-10-17T15:01:49;20.40;99.90
31311;DHT22;17937;51.508;7.534;2022-10-17T15:04:14;20.30;99.90
31311;DHT22;17937;51.508;7.534;2022-10-17T15:06:40;20.30;99.90
31311;DHT22;17937;51.508;7.534;2022-10-17T15:09:06;20.30;99.90
31311;DHT22;17937;51.508;7.534;2022-10-17T15:11:31;20.30;99.90
31311;DHT22;17937;51.508;7.534;2022-10-17T15:13:57;20.20;99.90
31311;DHT22;17937;51.508;7.534;2022-10-17T15:16:24;20.20;99.90
31311;DHT22;17937;51.508;7.534;2022-10-17T15:18:51;20.20;99.90
31311;DHT22;17937;51.508;7.534;2022-10-17T15:21:19;20.10;99.90
31311;DHT22;17937;51.508;7.534;2022-10-17T15:23:45;20.10;99.90
31311;DHT22;17937;51.508;7.534;2022-10-17T15:28:41;20.10;99.90
31311;DHT22;17937;51.508;7.534;2022-10-17T15:31:10;20.00;99.90
31311;DHT22;17937;51.508;7.534;2022-10-17T15:33:35;20.00;99.90
31311;DHT22;17937;51.508;7.534;2022-10-17T15:36:01;20.00;99.90
31311;DHT22;17937;51.508;7.534;2022-10-17T15:38:27;19.90;99.90
31311;DHT22;17937;51.508;7.534;2022-10-17T15:40:52;19.90;99.90
31311;DHT22;17937;51.508;7.534;2022-10-17T15:43:18;19.90;99.90
31311;DHT22;17937;51.508;7.534;2022-10-17T15:45:43;19.90;99.90
31311;DHT22;17937;51.508;7.534;2022-10-17T15:48:20;19.80;99.90
31311;DHT22;17937;51.508;7.534;2022-10-17T15:50:50;19.80;99.90
31311;DHT22;17937;51.508;7.534;2022-10-17T15:53:15;19.70;99.90
31311;DHT22;17937;51.508;7.534;2022-10-17T15:55:41;19.70;99.90
31311;DHT22;17937;51.508;7.534;2022-10-17T15:58:16;19.60;99.90
31311;DHT22;17937;51.508;7.534;2022-10-17T16:00:43;19.50;99.90
31311;DHT22;17937;51.508;7.534;2022-10-17T16:03:08;19.40;99.90
31311;DHT22;17937;51.508;7.534;2022-10-17T16:05:34;19.40;99.90
31311;DHT22;17937;51.508;7.534;2022-10-17T16:08:00;19.30;99.90
31311;DHT22;17937;51.508;7.534;2022-10-17T16:10:25;19.30;99.90
31311;DHT22;17937;51.508;7.534;2022-10-17T16:12:51;19.20;99.90
31311;DHT22;17937;51.508;7.534;2022-10-17T16:15:23;19.20;99.90
31311;DHT22;17937;51.508;7.534;2022-10-17T16:17:50;19.20;99.90
31311;DHT22;17937;51.508;7.534;2022-10-17T16:20:16;19.10;99.90
31311;DHT22;17937;51.508;7.534;2022-10-17T16:22:43;19.00;99.90
31311;DHT22;17937;51.508;7.534;2022-10-17T16:25:21;18.90;99.90
31311;DHT22;17937;51.508;7.534;2022-10-17T16:27:48;18.90;99.90
31311;DHT22;17937;51.508;7.534;2022-10-17T16:30:15;18.90;99.90
31311;DHT22;17937;51.508;7.534;2022-10-17T16:32:42;18.80;99.90
31311;DHT22;17937;51.508;7.534;2022-10-17T16:35:10;18.80;99.90
31311;DHT22;17937;51.508;7.534;2022-10-17T16:37:35;18.80;99.90
31311;DHT22;17937;51.508;7.534;2022-10-17T16:40:01;18.70;99.90
31311;DHT22;17937;51.508;7.534;2022-10-17T16:42:28;18.70;99.90
31311;DHT22;17937;51.508;7.534;2022-10-17T16:44:54;18.70;99.90
31311;DHT22;17937;51.508;7.534;2022-10-17T16:47:19;18.60;99.90
31311;DHT22;17937;51.508;7.534;2022-10-17T16:49:45;18.60;99.90
31311;DHT22;17937;51.508;7.534;2022-10-17T16:52:11;18.50;99.90
31311;DHT22;17937;51.508;7.534;2022-10-17T16:54:37;18.50;99.90
31311;DHT22;17937;51.508;7.534;2022-10-17T16:57:02;18.50;99.90
31311;DHT22;17937;51.508;7.534;2022-10-17T16:59:28;18.50;99.90
31311;DHT22;17937;51.508;7.534;2022-10-17T17:01:54;18.40;99.90
31311;DHT22;17937;51.508;7.534;2022-10-17T17:04:19;18.40;99.90
31311;DHT22;17937;51.508;7.534;2022-10-17T17:06:45;18.30;99.90
31311;DHT22;17937;51.508;7.534;2022-10-17T17:09:11;18.30;99.90
31311;DHT22;17937;51.508;7.534;2022-10-17T17:11:37;18.30;99.90
31311;DHT22;17937;51.508;7.534;2022-10-17T17:14:04;18.20;99.90
31311;DHT22;17937;51.508;7.534;2022-10-17T17:16:32;18.20;99.90
31311;DHT22;17937;51.508;7.534;2022-10-17T17:19:00;18.20;99.90
31311;DHT22;17937;51.508;7.534;2022-10-17T17:21:26;18.20;99.90
31311;DHT22;17937;51.508;7.534;2022-10-17T17:23:53;18.10;99.90